sensor_id;sensor_type;location;lat;lon;timestamp;P1;durP1;ratioP1;P2;durP2;ratioP2
22939;SDS011;11636;52.086;5.090;2022-08-19T00:02:14;3.30;;;2.38;;
22939;SDS011;11636;52.086;5.090;2022-08-19T00:05:02;3.45;;;2.53;;
22939;SDS011;11636;52.086;5.090;2022-08-19T00:07:56;4.15;;;2.78;;
22939;SDS011;11636;52.086;5.090;2022-08-19T00:10:44;3.80;;;2.80;;
22939;SDS011;11636;52.086;5.090;2022-08-19T00:13:38;4.00;;;2.83;;
22939;SDS011;11636;52.086;5.090;2022-08-19T00:16:25;3.33;;;2.70;;
22939;SDS011;11636;52.086;5.090;2022-08-19T00:19:20;4.53;;;2.80;;
22939;SDS011;11636;52.086;5.090;2022-08-19T00:22:07;3.53;;;2.90;;
22939;SDS011;11636;52.086;5.090;2022-08-19T00:25:02;3.30;;;2.70;;
22939;SDS011;11636;52.086;5.090;2022-08-19T00:27:56;3.67;;;2.92;;
22939;SDS011;11636;52.086;5.090;2022-08-19T00:30:51;4.05;;;3.17;;
22939;SDS011;11636;52.086;5.090;2022-08-19T00:33:39;4.10;;;3.20;;
22939;SDS011;11636;52.086;5.090;2022-08-19T00:36:33;3.83;;;3.22;;
22939;SDS011;11636;52.086;5.090;2022-08-19T00:39:21;5.88;;;4.30;;
22939;SDS011;11636;52.086;5.090;2022-08-19T00:42:14;5.15;;;4.15;;
22939;SDS011;11636;52.086;5.090;2022-08-19T00:45:10;4.32;;;3.50;;
22939;SDS011;11636;52.086;5.090;2022-08-19T00:48:03;4.25;;;3.70;;
22939;SDS011;11636;52.086;5.090;2022-08-19T00:51:00;5.80;;;4.00;;
22939;SDS011;11636;52.086;5.090;2022-08-19T00:53:48;5.75;;;4.47;;
22939;SDS011;11636;52.086;5.090;2022-08-19T00:56:41;6.55;;;5.15;;
22939;SDS011;11636;52.086;5.090;2022-08-19T00:59:30;6.97;;;6.28;;
22939;SDS011;11636;52.086;5.090;2022-08-19T01:02:43;6.63;;;5.70;;
22939;SDS011;11636;52.086;5.090;2022-08-19T01:05:31;7.72;;;6.40;;
22939;SDS011;11636;52.086;5.090;2022-08-19T01:08:24;9.68;;;8.68;;
22939;SDS011;11636;52.086;5.090;2022-08-19T01:11:12;10.55;;;9.20;;
22939;SDS011;11636;52.086;5.090;2022-08-19T01:14:06;10.07;;;9.07;;
22939;SDS011;11636;52.086;5.090;2022-08-19T01:16:54;10.38;;;8.80;;
22939;SDS011;11636;52.086;5.090;2022-08-19T01:19:49;11.77;;;10.50;;
22939;SDS011;11636;52.086;5.090;2022-08-19T01:22:44;14.20;;;12.70;;
22939;SDS011;11636;52.086;5.090;2022-08-19T01:25:50;13.40;;;11.95;;
22939;SDS011;11636;52.086;5.090;2022-08-19T01:28:48;14.77;;;12.15;;
22939;SDS011;11636;52.086;5.090;2022-08-19T01:31:37;13.73;;;12.30;;
22939;SDS011;11636;52.086;5.090;2022-08-19T01:34:31;12.20;;;10.93;;
22939;SDS011;11636;52.086;5.090;2022-08-19T01:37:26;12.65;;;11.35;;
22939;SDS011;11636;52.086;5.090;2022-08-19T01:40:21;12.32;;;11.02;;
22939;SDS011;11636;52.086;5.090;2022-08-19T01:43:11;13.38;;;11.98;;
22939;SDS011;11636;52.086;5.090;2022-08-19T01:46:04;12.52;;;11.27;;
22939;SDS011;11636;52.086;5.090;2022-08-19T01:48:58;12.38;;;11.07;;
22939;SDS011;11636;52.086;5.090;2022-08-19T01:51:53;11.60;;;10.00;;
22939;SDS011;11636;52.086;5.090;2022-08-19T01:54:47;13.90;;;12.50;;
22939;SDS011;11636;52.086;5.090;2022-08-19T01:57:42;14.02;;;12.63;;
22939;SDS011;11636;52.086;5.090;2022-08-19T02:00:34;13.45;;;12.05;;
22939;SDS011;11636;52.086;5.090;2022-08-19T02:03:27;11.85;;;10.65;;
22939;SDS011;11636;52.086;5.090;2022-08-19T02:06:15;12.57;;;11.27;;
22939;SDS011;11636;52.086;5.090;2022-08-19T02:09:12;11.27;;;10.13;;
22939;SDS011;11636;52.086;5.090;2022-08-19T02:11:59;11.13;;;10.02;;
22939;SDS011;11636;52.086;5.090;2022-08-19T02:14:53;12.77;;;11.45;;
22939;SDS011;11636;52.086;5.090;2022-08-19T02:17:47;14.18;;;12.02;;
22939;SDS011;11636;52.086;5.090;2022-08-19T02:20:35;12.07;;;10.88;;
22939;SDS011;11636;52.086;5.090;2022-08-19T02:23:32;12.82;;;11.38;;
22939;SDS011;11636;52.086;5.090;2022-08-19T02:26:19;13.52;;;12.05;;
22939;SDS011;11636;52.086;5.090;2022-08-19T02:29:12;14.65;;;13.15;;
22939;SDS011;11636;52.086;5.090;2022-08-19T02:32:07;13.35;;;11.95;;
22939;SDS011;11636;52.086;5.090;2022-08-19T02:34:54;12.25;;;11.05;;
22939;SDS011;11636;52.086;5.090;2022-08-19T02:37:57;12.68;;;10.65;;
22939;SDS011;11636;52.086;5.090;2022-08-19T02:41:05;12.00;;;10.68;;
22939;SDS011;11636;52.086;5.090;2022-08-19T02:44:03;12.73;;;11.43;;
22939;SDS011;11636;52.086;5.090;2022-08-19T02:50:12;11.38;;;9.93;;
22939;SDS011;11636;52.086;5.090;2022-08-19T02:53:06;12.68;;;10.85;;
22939;SDS011;11636;52.086;5.090;2022-08-19T02:55:54;12.63;;;11.32;;
22939;SDS011;11636;52.086;5.090;2022-08-19T02:58:48;13.63;;;12.23;;
22939;SDS011;11636;52.086;5.090;2022-08-19T03:01:37;12.43;;;11.05;;
22939;SDS011;11636;52.086;5.090;2022-08-19T03:04:33;12.50;;;11.20;;
22939;SDS011;11636;52.086;5.090;2022-08-19T03:07:20;13.13;;;11.73;;
22939;SDS011;11636;52.086;5.090;2022-08-19T03:10:14;12.63;;;10.77;;
22939;SDS011;11636;52.086;5.090;2022-08-19T03:13:01;11.27;;;10.15;;
22939;SDS011;11636;52.086;5.090;2022-08-19T03:15:56;12.52;;;10.88;;
22939;SDS011;11636;52.086;5.090;2022-08-19T03:18:43;13.25;;;11.85;;
22939;SDS011;11636;52.086;5.090;2022-08-19T03:21:37;13.65;;;11.68;;
22939;SDS011;11636;52.086;5.090;2022-08-19T03:24:24;14.63;;;12.13;;
22939;SDS011;11636;52.086;5.090;2022-08-19T03:27:17;12.38;;;11.10;;
22939;SDS011;11636;52.086;5.090;2022-08-19T03:30:05;11.48;;;10.27;;
22939;SDS011;11636;52.086;5.090;2022-08-19T03:33:06;11.65;;;10.43;;
22939;SDS011;11636;52.086;5.090;2022-08-19T03:36:04;11.82;;;10.50;;
22939;SDS011;11636;52.086;5.090;2022-08-19T03:39:01;12.30;;;10.15;;
22939;SDS011;11636;52.086;5.090;2022-08-19T03:41:55;10.80;;;9.65;;
22939;SDS011;11636;52.086;5.090;2022-08-19T03:45:03;12.30;;;10.02;;
22939;SDS011;11636;52.086;5.090;2022-08-19T03:47:58;10.90;;;9.77;;
22939;SDS011;11636;52.086;5.090;2022-08-19T03:50:45;11.27;;;10.07;;
22939;SDS011;11636;52.086;5.090;2022-08-19T03:53:39;11.65;;;10.40;;
22939;SDS011;11636;52.086;5.090;2022-08-19T03:56:26;11.85;;;10.63;;
22939;SDS011;11636;52.086;5.090;2022-08-19T03:59:22;11.88;;;10.13;;
22939;SDS011;11636;52.086;5.090;2022-08-19T04:02:17;11.77;;;10.57;;
22939;SDS011;11636;52.086;5.090;2022-08-19T04:05:11;12.05;;;10.75;;
22939;SDS011;11636;52.086;5.090;2022-08-19T04:07:59;12.23;;;10.82;;
22939;SDS011;11636;52.086;5.090;2022-08-19T04:10:59;13.60;;;11.48;;
22939;SDS011;11636;52.086;5.090;2022-08-19T04:13:46;13.43;;;11.88;;
22939;SDS011;11636;52.086;5.090;2022-08-19T04:16:41;13.05;;;11.65;;
22939;SDS011;11636;52.086;5.090;2022-08-19T04:19:37;14.70;;;12.20;;
22939;SDS011;11636;52.086;5.090;2022-08-19T04:22:31;12.77;;;11.38;;
22939;SDS011;11636;52.086;5.090;2022-08-19T04:25:18;13.82;;;11.80;;
22939;SDS011;11636;52.086;5.090;2022-08-19T04:28:12;14.70;;;13.07;;
22939;SDS011;11636;52.086;5.090;2022-08-19T04:31:06;14.48;;;12.50;;
22939;SDS011;11636;52.086;5.090;2022-08-19T04:34:06;15.02;;;12.93;;
22939;SDS011;11636;52.086;5.090;2022-08-19T04:37:04;16.00;;;12.57;;
22939;SDS011;11636;52.086;5.090;2022-08-19T04:40:06;15.40;;;12.82;;
22939;SDS011;11636;52.086;5.090;2022-08-19T04:43:19;15.93;;;13.43;;
22939;SDS011;11636;52.086;5.090;2022-08-19T04:46:06;22.30;;;17.63;;
22939;SDS011;11636;52.086;5.090;2022-08-19T04:49:24;23.52;;;19.23;;
22939;SDS011;11636;52.086;5.090;2022-08-19T04:52:11;21.02;;;18.63;;
22939;SDS011;11636;52.086;5.090;2022-08-19T04:55:06;17.50;;;15.13;;
22939;SDS011;11636;52.086;5.090;2022-08-19T04:57:53;16.13;;;14.00;;
22939;SDS011;11636;52.086;5.090;2022-08-19T05:00:47;17.63;;;14.43;;
22939;SDS011;11636;52.086;5.090;2022-08-19T05:03:34;24.17;;;18.90;;
22939;SDS011;11636;52.086;5.090;2022-08-19T05:06:28;21.25;;;17.90;;
22939;SDS011;11636;52.086;5.090;2022-08-19T05:09:15;31.13;;;23.77;;
22939;SDS011;11636;52.086;5.090;2022-08-19T05:12:10;39.38;;;29.67;;
22939;SDS011;11636;52.086;5.090;2022-08-19T05:14:57;36.22;;;27.63;;
22939;SDS011;11636;52.086;5.090;2022-08-19T05:17:52;39.05;;;29.77;;
22939;SDS011;11636;52.086;5.090;2022-08-19T05:20:57;42.13;;;31.83;;
22939;SDS011;11636;52.086;5.090;2022-08-19T05:24:10;42.78;;;31.33;;
22939;SDS011;11636;52.086;5.090;2022-08-19T05:27:05;32.30;;;25.50;;
22939;SDS011;11636;52.086;5.090;2022-08-19T05:30:13;28.55;;;22.35;;
22939;SDS011;11636;52.086;5.090;2022-08-19T05:33:32;33.53;;;25.45;;
22939;SDS011;11636;52.086;5.090;2022-08-19T05:36:26;41.75;;;31.50;;
22939;SDS011;11636;52.086;5.090;2022-08-19T05:39:16;41.42;;;29.95;;
22939;SDS011;11636;52.086;5.090;2022-08-19T05:42:12;30.33;;;23.95;;
22939;SDS011;11636;52.086;5.090;2022-08-19T05:44:59;26.10;;;20.27;;
22939;SDS011;11636;52.086;5.090;2022-08-19T05:47:53;28.38;;;22.13;;
22939;SDS011;11636;52.086;5.090;2022-08-19T05:50:41;37.50;;;27.17;;
22939;SDS011;11636;52.086;5.090;2022-08-19T05:53:35;30.48;;;23.08;;
22939;SDS011;11636;52.086;5.090;2022-08-19T05:56:29;29.10;;;22.00;;
22939;SDS011;11636;52.086;5.090;2022-08-19T05:59:17;26.40;;;19.38;;
22939;SDS011;11636;52.086;5.090;2022-08-19T06:02:17;39.20;;;28.92;;
22939;SDS011;11636;52.086;5.090;2022-08-19T06:05:04;47.67;;;33.05;;
22939;SDS011;11636;52.086;5.090;2022-08-19T06:08:02;47.83;;;32.25;;
22939;SDS011;11636;52.086;5.090;2022-08-19T06:10:49;66.20;;;42.60;;
22939;SDS011;11636;52.086;5.090;2022-08-19T06:13:43;72.00;;;43.33;;
22939;SDS011;11636;52.086;5.090;2022-08-19T06:16:38;64.80;;;40.33;;
22939;SDS011;11636;52.086;5.090;2022-08-19T06:19:33;67.32;;;41.15;;
22939;SDS011;11636;52.086;5.090;2022-08-19T06:22:27;81.78;;;47.28;;
22939;SDS011;11636;52.086;5.090;2022-08-19T06:25:15;71.82;;;42.45;;
22939;SDS011;11636;52.086;5.090;2022-08-19T06:28:21;70.68;;;42.72;;
22939;SDS011;11636;52.086;5.090;2022-08-19T06:31:35;77.20;;;46.05;;
22939;SDS011;11636;52.086;5.090;2022-08-19T06:34:23;67.57;;;41.85;;
22939;SDS011;11636;52.086;5.090;2022-08-19T06:37:18;78.40;;;46.97;;
22939;SDS011;11636;52.086;5.090;2022-08-19T06:40:12;59.13;;;38.47;;
22939;SDS011;11636;52.086;5.090;2022-08-19T06:43:06;65.07;;;42.15;;
22939;SDS011;11636;52.086;5.090;2022-08-19T06:45:54;56.22;;;37.80;;
22939;SDS011;11636;52.086;5.090;2022-08-19T06:48:48;46.97;;;32.58;;
22939;SDS011;11636;52.086;5.090;2022-08-19T06:51:36;50.38;;;33.53;;
22939;SDS011;11636;52.086;5.090;2022-08-19T06:54:32;58.60;;;40.42;;
22939;SDS011;11636;52.086;5.090;2022-08-19T06:57:40;71.03;;;47.10;;
22939;SDS011;11636;52.086;5.090;2022-08-19T07:00:34;56.00;;;39.58;;
22939;SDS011;11636;52.086;5.090;2022-08-19T07:03:23;82.13;;;51.97;;
22939;SDS011;11636;52.086;5.090;2022-08-19T07:06:18;84.57;;;55.92;;
22939;SDS011;11636;52.086;5.090;2022-08-19T07:09:26;57.13;;;41.20;;
22939;SDS011;11636;52.086;5.090;2022-08-19T07:12:21;67.38;;;47.22;;
22939;SDS011;11636;52.086;5.090;2022-08-19T07:15:16;68.30;;;47.75;;
22939;SDS011;11636;52.086;5.090;2022-08-19T07:18:10;66.05;;;45.50;;
22939;SDS011;11636;52.086;5.090;2022-08-19T07:23:58;41.03;;;32.65;;
22939;SDS011;11636;52.086;5.090;2022-08-19T07:26:51;41.97;;;33.00;;
22939;SDS011;11636;52.086;5.090;2022-08-19T07:29:47;40.50;;;31.77;;
22939;SDS011;11636;52.086;5.090;2022-08-19T07:32:45;31.98;;;26.77;;
22939;SDS011;11636;52.086;5.090;2022-08-19T07:35:36;34.58;;;26.90;;
22939;SDS011;11636;52.086;5.090;2022-08-19T07:38:29;41.20;;;30.02;;
22939;SDS011;11636;52.086;5.090;2022-08-19T07:41:24;34.58;;;27.75;;
22939;SDS011;11636;52.086;5.090;2022-08-19T07:44:19;27.90;;;24.13;;
22939;SDS011;11636;52.086;5.090;2022-08-19T07:47:07;60.30;;;42.28;;
22939;SDS011;11636;52.086;5.090;2022-08-19T07:50:21;44.67;;;34.60;;
22939;SDS011;11636;52.086;5.090;2022-08-19T07:53:08;39.17;;;29.77;;
22939;SDS011;11636;52.086;5.090;2022-08-19T07:56:03;36.92;;;28.42;;
22939;SDS011;11636;52.086;5.090;2022-08-19T07:58:51;46.38;;;34.92;;
22939;SDS011;11636;52.086;5.090;2022-08-19T08:01:46;41.13;;;32.35;;
22939;SDS011;11636;52.086;5.090;2022-08-19T08:04:34;34.58;;;28.67;;
22939;SDS011;11636;52.086;5.090;2022-08-19T08:07:47;34.47;;;28.20;;
22939;SDS011;11636;52.086;5.090;2022-08-19T08:11:00;39.57;;;30.63;;
22939;SDS011;11636;52.086;5.090;2022-08-19T08:13:54;32.40;;;27.70;;
22939;SDS011;11636;52.086;5.090;2022-08-19T08:19:47;35.83;;;29.10;;
22939;SDS011;11636;52.086;5.090;2022-08-19T08:22:44;53.65;;;40.45;;
22939;SDS011;11636;52.086;5.090;2022-08-19T08:25:57;49.33;;;37.88;;
22939;SDS011;11636;52.086;5.090;2022-08-19T08:28:51;39.88;;;33.30;;
22939;SDS011;11636;52.086;5.090;2022-08-19T08:31:39;34.35;;;29.02;;
22939;SDS011;11636;52.086;5.090;2022-08-19T08:34:45;26.05;;;23.38;;
22939;SDS011;11636;52.086;5.090;2022-08-19T08:37:38;23.20;;;20.90;;
22939;SDS011;11636;52.086;5.090;2022-08-19T08:40:43;25.00;;;21.50;;
22939;SDS011;11636;52.086;5.090;2022-08-19T08:43:37;23.85;;;19.83;;
22939;SDS011;11636;52.086;5.090;2022-08-19T08:46:41;28.92;;;24.05;;
22939;SDS011;11636;52.086;5.090;2022-08-19T08:49:41;26.95;;;21.05;;
22939;SDS011;11636;52.086;5.090;2022-08-19T08:52:39;17.95;;;15.82;;
22939;SDS011;11636;52.086;5.090;2022-08-19T08:55:37;19.77;;;17.58;;
22939;SDS011;11636;52.086;5.090;2022-08-19T08:58:30;22.80;;;18.27;;
22939;SDS011;11636;52.086;5.090;2022-08-19T09:01:40;22.90;;;19.35;;
22939;SDS011;11636;52.086;5.090;2022-08-19T09:04:27;21.65;;;19.35;;
22939;SDS011;11636;52.086;5.090;2022-08-19T09:07:36;18.38;;;16.05;;
22939;SDS011;11636;52.086;5.090;2022-08-19T09:10:53;26.08;;;22.52;;
22939;SDS011;11636;52.086;5.090;2022-08-19T09:13:46;29.35;;;26.15;;
22939;SDS011;11636;52.086;5.090;2022-08-19T09:16:49;25.60;;;22.90;;
22939;SDS011;11636;52.086;5.090;2022-08-19T09:19:55;24.45;;;21.58;;
22939;SDS011;11636;52.086;5.090;2022-08-19T09:23:02;33.25;;;27.70;;
22939;SDS011;11636;52.086;5.090;2022-08-19T09:25:50;26.75;;;23.02;;
22939;SDS011;11636;52.086;5.090;2022-08-19T09:28:44;27.27;;;23.55;;
22939;SDS011;11636;52.086;5.090;2022-08-19T09:31:34;32.85;;;28.25;;
22939;SDS011;11636;52.086;5.090;2022-08-19T09:34:28;32.85;;;28.00;;
22939;SDS011;11636;52.086;5.090;2022-08-19T09:37:24;31.35;;;26.90;;
22939;SDS011;11636;52.086;5.090;2022-08-19T09:40:19;22.90;;;20.48;;
22939;SDS011;11636;52.086;5.090;2022-08-19T09:43:16;35.42;;;30.52;;
22939;SDS011;11636;52.086;5.090;2022-08-19T09:46:19;37.00;;;29.23;;
22939;SDS011;11636;52.086;5.090;2022-08-19T09:49:17;25.90;;;23.05;;
22939;SDS011;11636;52.086;5.090;2022-08-19T09:52:07;23.38;;;19.70;;
22939;SDS011;11636;52.086;5.090;2022-08-19T09:55:07;22.33;;;19.98;;
22939;SDS011;11636;52.086;5.090;2022-08-19T09:58:03;27.10;;;22.55;;
22939;SDS011;11636;52.086;5.090;2022-08-19T10:00:57;20.88;;;18.77;;
22939;SDS011;11636;52.086;5.090;2022-08-19T10:03:54;22.23;;;20.00;;
22939;SDS011;11636;52.086;5.090;2022-08-19T10:06:43;20.17;;;18.15;;
22939;SDS011;11636;52.086;5.090;2022-08-19T10:09:39;17.00;;;15.40;;
22939;SDS011;11636;52.086;5.090;2022-08-19T10:12:33;18.50;;;16.65;;
22939;SDS011;11636;52.086;5.090;2022-08-19T10:15:31;16.98;;;15.25;;
22939;SDS011;11636;52.086;5.090;2022-08-19T10:21:35;14.75;;;13.25;;
22939;SDS011;11636;52.086;5.090;2022-08-19T10:24:34;18.25;;;16.38;;
22939;SDS011;11636;52.086;5.090;2022-08-19T10:27:21;20.80;;;17.63;;
22939;SDS011;11636;52.086;5.090;2022-08-19T10:30:17;20.70;;;18.20;;
22939;SDS011;11636;52.086;5.090;2022-08-19T10:33:05;16.42;;;13.90;;
22939;SDS011;11636;52.086;5.090;2022-08-19T10:36:00;16.30;;;14.48;;
22939;SDS011;11636;52.086;5.090;2022-08-19T10:38:54;21.88;;;18.38;;
22939;SDS011;11636;52.086;5.090;2022-08-19T10:41:51;18.55;;;16.63;;
22939;SDS011;11636;52.086;5.090;2022-08-19T10:44:38;29.90;;;24.23;;
22939;SDS011;11636;52.086;5.090;2022-08-19T10:47:33;21.25;;;18.45;;
22939;SDS011;11636;52.086;5.090;2022-08-19T10:50:28;17.15;;;14.68;;
22939;SDS011;11636;52.086;5.090;2022-08-19T10:53:34;14.93;;;13.35;;
22939;SDS011;11636;52.086;5.090;2022-08-19T10:56:28;16.70;;;15.00;;
22939;SDS011;11636;52.086;5.090;2022-08-19T10:59:43;12.90;;;11.50;;
22939;SDS011;11636;52.086;5.090;2022-08-19T11:02:37;15.55;;;14.00;;
22939;SDS011;11636;52.086;5.090;2022-08-19T11:05:24;17.08;;;15.27;;
22939;SDS011;11636;52.086;5.090;2022-08-19T11:08:25;14.90;;;13.32;;
22939;SDS011;11636;52.086;5.090;2022-08-19T11:11:13;21.85;;;19.00;;
22939;SDS011;11636;52.086;5.090;2022-08-19T11:14:07;30.27;;;22.95;;
22939;SDS011;11636;52.086;5.090;2022-08-19T11:16:56;23.10;;;19.27;;
22939;SDS011;11636;52.086;5.090;2022-08-19T11:19:49;22.70;;;19.20;;
22939;SDS011;11636;52.086;5.090;2022-08-19T11:22:37;23.15;;;19.65;;
22939;SDS011;11636;52.086;5.090;2022-08-19T11:25:33;27.90;;;20.55;;
22939;SDS011;11636;52.086;5.090;2022-08-19T11:28:27;16.92;;;14.20;;
22939;SDS011;11636;52.086;5.090;2022-08-19T11:31:16;21.63;;;16.02;;
22939;SDS011;11636;52.086;5.090;2022-08-19T11:34:16;16.83;;;14.50;;
22939;SDS011;11636;52.086;5.090;2022-08-19T11:37:13;19.45;;;16.92;;
22939;SDS011;11636;52.086;5.090;2022-08-19T11:40:09;19.50;;;16.70;;
22939;SDS011;11636;52.086;5.090;2022-08-19T11:42:57;21.52;;;17.45;;
22939;SDS011;11636;52.086;5.090;2022-08-19T11:45:50;16.55;;;13.48;;
22939;SDS011;11636;52.086;5.090;2022-08-19T11:48:37;14.60;;;10.55;;
22939;SDS011;11636;52.086;5.090;2022-08-19T11:51:31;15.88;;;11.25;;
22939;SDS011;11636;52.086;5.090;2022-08-19T11:54:20;11.93;;;8.25;;
22939;SDS011;11636;52.086;5.090;2022-08-19T11:57:13;9.70;;;7.93;;
22939;SDS011;11636;52.086;5.090;2022-08-19T12:00:03;15.02;;;9.40;;
22939;SDS011;11636;52.086;5.090;2022-08-19T12:02:59;9.18;;;7.10;;
22939;SDS011;11636;52.086;5.090;2022-08-19T12:05:47;15.07;;;9.25;;
22939;SDS011;11636;52.086;5.090;2022-08-19T12:08:42;19.20;;;11.30;;
22939;SDS011;11636;52.086;5.090;2022-08-19T12:11:37;14.25;;;9.00;;
22939;SDS011;11636;52.086;5.090;2022-08-19T12:14:31;10.15;;;8.20;;
22939;SDS011;11636;52.086;5.090;2022-08-19T12:17:19;15.88;;;11.23;;
22939;SDS011;11636;52.086;5.090;2022-08-19T12:20:13;18.70;;;12.25;;
22939;SDS011;11636;52.086;5.090;2022-08-19T12:23:02;16.10;;;10.55;;
22939;SDS011;11636;52.086;5.090;2022-08-19T12:25:56;15.30;;;8.60;;
22939;SDS011;11636;52.086;5.090;2022-08-19T12:28:44;11.60;;;7.53;;
22939;SDS011;11636;52.086;5.090;2022-08-19T12:31:37;8.05;;;5.80;;
22939;SDS011;11636;52.086;5.090;2022-08-19T12:34:32;8.27;;;5.40;;
22939;SDS011;11636;52.086;5.090;2022-08-19T12:37:26;8.73;;;5.88;;
22939;SDS011;11636;52.086;5.090;2022-08-19T12:40:16;8.70;;;6.35;;
22939;SDS011;11636;52.086;5.090;2022-08-19T12:43:12;13.07;;;7.10;;
22939;SDS011;11636;52.086;5.090;2022-08-19T12:46:00;7.13;;;5.72;;
22939;SDS011;11636;52.086;5.090;2022-08-19T12:48:56;13.85;;;7.97;;
22939;SDS011;11636;52.086;5.090;2022-08-19T12:51:44;11.60;;;6.72;;
22939;SDS011;11636;52.086;5.090;2022-08-19T12:54:38;8.88;;;5.45;;
22939;SDS011;11636;52.086;5.090;2022-08-19T12:57:33;9.65;;;7.07;;
22939;SDS011;11636;52.086;5.090;2022-08-19T13:00:22;10.00;;;6.43;;
22939;SDS011;11636;52.086;5.090;2022-08-19T13:03:15;7.38;;;4.93;;
22939;SDS011;11636;52.086;5.090;2022-08-19T13:06:03;7.57;;;4.50;;
22939;SDS011;11636;52.086;5.090;2022-08-19T13:08:56;10.68;;;6.28;;
22939;SDS011;11636;52.086;5.090;2022-08-19T13:11:45;10.07;;;5.80;;
22939;SDS011;11636;52.086;5.090;2022-08-19T13:14:39;7.68;;;5.32;;
22939;SDS011;11636;52.086;5.090;2022-08-19T13:17:27;11.43;;;6.43;;
22939;SDS011;11636;52.086;5.090;2022-08-19T13:20:21;8.27;;;5.35;;
22939;SDS011;11636;52.086;5.090;2022-08-19T13:23:09;10.13;;;5.78;;
22939;SDS011;11636;52.086;5.090;2022-08-19T13:26:04;7.65;;;5.63;;
22939;SDS011;11636;52.086;5.090;2022-08-19T13:28:53;10.00;;;5.20;;
22939;SDS011;11636;52.086;5.090;2022-08-19T13:32:05;7.82;;;4.93;;
22939;SDS011;11636;52.086;5.090;2022-08-19T13:35:34;8.18;;;5.00;;
22939;SDS011;11636;52.086;5.090;2022-08-19T13:38:28;9.50;;;5.00;;
22939;SDS011;11636;52.086;5.090;2022-08-19T13:41:22;6.40;;;3.92;;
22939;SDS011;11636;52.086;5.090;2022-08-19T13:44:17;6.75;;;4.93;;
22939;SDS011;11636;52.086;5.090;2022-08-19T13:47:05;6.25;;;4.97;;
22939;SDS011;11636;52.086;5.090;2022-08-19T13:50:03;8.10;;;5.20;;
22939;SDS011;11636;52.086;5.090;2022-08-19T13:52:50;9.55;;;6.30;;
22939;SDS011;11636;52.086;5.090;2022-08-19T13:55:51;6.28;;;4.70;;
22939;SDS011;11636;52.086;5.090;2022-08-19T13:58:47;7.18;;;5.50;;
22939;SDS011;11636;52.086;5.090;2022-08-19T14:01:44;7.85;;;6.00;;
22939;SDS011;11636;52.086;5.090;2022-08-19T14:04:32;7.43;;;5.13;;
22939;SDS011;11636;52.086;5.090;2022-08-19T14:07:26;8.25;;;4.93;;
22939;SDS011;11636;52.086;5.090;2022-08-19T14:10:13;7.38;;;4.38;;
22939;SDS011;11636;52.086;5.090;2022-08-19T14:13:09;5.90;;;4.35;;
22939;SDS011;11636;52.086;5.090;2022-08-19T14:15:56;5.60;;;4.80;;
22939;SDS011;11636;52.086;5.090;2022-08-19T14:18:50;7.38;;;5.03;;
22939;SDS011;11636;52.086;5.090;2022-08-19T14:21:39;4.22;;;3.55;;
22939;SDS011;11636;52.086;5.090;2022-08-19T14:24:34;6.18;;;4.30;;
22939;SDS011;11636;52.086;5.090;2022-08-19T14:27:33;5.85;;;4.72;;
22939;SDS011;11636;52.086;5.090;2022-08-19T14:30:32;5.97;;;4.30;;
22939;SDS011;11636;52.086;5.090;2022-08-19T14:33:21;6.88;;;5.28;;
22939;SDS011;11636;52.086;5.090;2022-08-19T14:36:16;6.25;;;4.32;;
22939;SDS011;11636;52.086;5.090;2022-08-19T14:39:05;4.50;;;3.78;;
22939;SDS011;11636;52.086;5.090;2022-08-19T14:41:59;4.85;;;3.22;;
22939;SDS011;11636;52.086;5.090;2022-08-19T14:44:46;5.38;;;3.85;;
22939;SDS011;11636;52.086;5.090;2022-08-19T14:47:40;4.47;;;3.03;;
22939;SDS011;11636;52.086;5.090;2022-08-19T14:50:27;4.05;;;3.00;;
22939;SDS011;11636;52.086;5.090;2022-08-19T14:53:21;3.97;;;3.40;;
22939;SDS011;11636;52.086;5.090;2022-08-19T14:56:09;3.95;;;3.30;;
22939;SDS011;11636;52.086;5.090;2022-08-19T14:59:07;6.18;;;4.85;;
22939;SDS011;11636;52.086;5.090;2022-08-19T15:02:01;7.90;;;5.88;;
22939;SDS011;11636;52.086;5.090;2022-08-19T15:05:08;6.57;;;4.82;;
22939;SDS011;11636;52.086;5.090;2022-08-19T15:08:02;8.48;;;7.10;;
22939;SDS011;11636;52.086;5.090;2022-08-19T15:10:57;7.70;;;5.90;;
22939;SDS011;11636;52.086;5.090;2022-08-19T15:13:52;10.55;;;7.05;;
22939;SDS011;11636;52.086;5.090;2022-08-19T15:16:40;7.22;;;5.25;;
22939;SDS011;11636;52.086;5.090;2022-08-19T15:19:35;5.95;;;5.03;;
22939;SDS011;11636;52.086;5.090;2022-08-19T15:22:29;6.75;;;5.05;;
22939;SDS011;11636;52.086;5.090;2022-08-19T15:25:23;8.40;;;6.50;;
22939;SDS011;11636;52.086;5.090;2022-08-19T15:28:10;7.70;;;5.35;;
22939;SDS011;11636;52.086;5.090;2022-08-19T15:31:04;7.75;;;5.85;;
22939;SDS011;11636;52.086;5.090;2022-08-19T15:33:51;6.03;;;4.38;;
22939;SDS011;11636;52.086;5.090;2022-08-19T15:36:45;8.13;;;5.55;;
22939;SDS011;11636;52.086;5.090;2022-08-19T15:39:32;11.25;;;8.85;;
22939;SDS011;11636;52.086;5.090;2022-08-19T15:42:26;10.18;;;7.60;;
22939;SDS011;11636;52.086;5.090;2022-08-19T15:45:16;10.27;;;8.32;;
22939;SDS011;11636;52.086;5.090;2022-08-19T15:48:17;8.90;;;6.63;;
22939;SDS011;11636;52.086;5.090;2022-08-19T15:51:04;5.80;;;4.40;;
22939;SDS011;11636;52.086;5.090;2022-08-19T15:53:58;6.45;;;4.63;;
22939;SDS011;11636;52.086;5.090;2022-08-19T15:56:52;5.35;;;4.13;;
22939;SDS011;11636;52.086;5.090;2022-08-19T15:59:57;5.07;;;3.53;;
22939;SDS011;11636;52.086;5.090;2022-08-19T16:03:12;5.07;;;3.30;;
22939;SDS011;11636;52.086;5.090;2022-08-19T16:06:27;6.65;;;4.03;;
22939;SDS011;11636;52.086;5.090;2022-08-19T16:09:22;4.90;;;3.42;;
22939;SDS011;11636;52.086;5.090;2022-08-19T16:12:23;8.75;;;4.63;;
22939;SDS011;11636;52.086;5.090;2022-08-19T16:15:15;5.70;;;4.03;;
22939;SDS011;11636;52.086;5.090;2022-08-19T16:18:09;5.40;;;3.47;;
22939;SDS011;11636;52.086;5.090;2022-08-19T16:20:56;4.68;;;2.85;;
22939;SDS011;11636;52.086;5.090;2022-08-19T16:23:50;7.57;;;4.53;;
22939;SDS011;11636;52.086;5.090;2022-08-19T16:26:44;5.65;;;3.42;;
22939;SDS011;11636;52.086;5.090;2022-08-19T16:29:38;6.88;;;4.63;;
22939;SDS011;11636;52.086;5.090;2022-08-19T16:32:25;7.18;;;4.40;;
22939;SDS011;11636;52.086;5.090;2022-08-19T16:35:19;9.38;;;5.30;;
22939;SDS011;11636;52.086;5.090;2022-08-19T16:38:07;7.97;;;5.10;;
22939;SDS011;11636;52.086;5.090;2022-08-19T16:41:01;7.32;;;4.63;;
22939;SDS011;11636;52.086;5.090;2022-08-19T16:43:55;9.50;;;6.43;;
22939;SDS011;11636;52.086;5.090;2022-08-19T16:46:42;8.38;;;5.93;;
22939;SDS011;11636;52.086;5.090;2022-08-19T16:49:44;11.95;;;6.88;;
22939;SDS011;11636;52.086;5.090;2022-08-19T16:52:41;8.57;;;5.40;;
22939;SDS011;11636;52.086;5.090;2022-08-19T16:55:35;10.75;;;5.80;;
22939;SDS011;11636;52.086;5.090;2022-08-19T16:58:29;8.05;;;4.60;;
22939;SDS011;11636;52.086;5.090;2022-08-19T17:01:26;6.20;;;4.32;;
22939;SDS011;11636;52.086;5.090;2022-08-19T17:04:21;5.95;;;4.10;;
22939;SDS011;11636;52.086;5.090;2022-08-19T17:07:08;5.47;;;3.22;;
22939;SDS011;11636;52.086;5.090;2022-08-19T17:10:03;4.57;;;2.90;;
22939;SDS011;11636;52.086;5.090;2022-08-19T17:12:58;6.15;;;3.03;;
22939;SDS011;11636;52.086;5.090;2022-08-19T17:15:52;4.43;;;2.60;;
22939;SDS011;11636;52.086;5.090;2022-08-19T17:18:40;5.45;;;2.88;;
22939;SDS011;11636;52.086;5.090;2022-08-19T17:21:34;5.30;;;2.80;;
22939;SDS011;11636;52.086;5.090;2022-08-19T17:24:23;4.53;;;2.25;;